Time;durP1;ratioP1;P1;durP2;ratioP2;P2;SDS_P1;SDS_P2;PMS_P1;PMS_P2;Temp;Humidity;BMP_temperature;BMP_pressure;BME280_temperature;BME280_humidity;BME280_pressure;Samples;Min_cycle;Max_cycle;Signal;HPM_P1;HPM_P2
2022/01/05 00:00:45;;;;;;;7.80;1.03;;;2.60;99.90;;;;;;5030361;28;20053;-66
2022/01/05 00:03:11;;;;;;;9.80;1.97;;;2.70;99.90;;;;;;5034993;28;20171;-65
2022/01/05 00:05:37;;;;;;;7.53;1.40;;;2.70;99.90;;;;;;5029038;28;20076;-66
2022/01/05 00:08:03;;;;;;;17.80;1.40;;;2.70;99.90;;;;;;5047996;28;20090;-65
2022/01/05 00:10:29;;;;;;;9.60;1.73;;;2.80;99.90;;;;;;5048462;28;20056;-65
2022/01/05 00:12:54;;;;;;;12.50;1.30;;;2.80;99.90;;;;;;5048577;28;20037;-65
2022/01/05 00:15:20;;;;;;;3.20;1.27;;;2.80;99.90;;;;;;5047933;28;20036;-65
2022/01/05 00:17:45;;;;;;;13.83;1.53;;;2.80;99.90;;;;;;5030465;28;20044;-66
2022/01/05 00:20:11;;;;;;;8.63;1.23;;;2.70;99.90;;;;;;5048086;28;20318;-66
2022/01/05 00:22:37;;;;;;;11.47;1.17;;;2.70;99.90;;;;;;5048661;28;20032;-65
2022/01/05 00:25:03;;;;;;;23.13;2.13;;;2.70;99.90;;;;;;5048563;28;20386;-65
2022/01/05 00:27:29;;;;;;;6.90;1.65;;;2.70;99.90;;;;;;5047486;28;20491;-65
2022/01/05 00:29:55;;;;;;;6.60;2.50;;;2.80;99.90;;;;;;5047259;28;20072;-65
2022/01/05 00:32:21;;;;;;;13.50;1.85;;;2.80;99.90;;;;;;5047125;28;20402;-65
2022/01/05 00:34:46;;;;;;;11.38;2.15;;;2.90;99.90;;;;;;5045270;28;20601;-65
2022/01/05 00:37:12;;;;;;;11.47;1.70;;;3.00;99.90;;;;;;5028610;28;20120;-65
2022/01/05 00:39:38;;;;;;;16.87;2.33;;;3.00;99.90;;;;;;5027537;28;20063;-65
2022/01/05 00:42:04;;;;;;;9.37;1.43;;;3.10;99.90;;;;;;5006334;28;20064;-65
2022/01/05 00:44:29;;;;;;;11.10;1.70;;;3.20;99.90;;;;;;5013493;28;20033;-66
2022/01/05 00:46:55;;;;;;;9.23;1.60;;;3.30;99.90;;;;;;5027586;28;20096;-65
2022/01/05 00:49:21;;;;;;;10.97;1.53;;;3.20;99.90;;;;;;5027974;28;20072;-65
2022/01/05 00:51:46;;;;;;;9.47;2.00;;;3.30;99.90;;;;;;5027065;28;20045;-65
2022/01/05 00:54:12;;;;;;;10.40;2.13;;;3.30;99.90;;;;;;5026954;28;20041;-65
2022/01/05 00:56:38;;;;;;;8.40;2.40;;;3.30;99.90;;;;;;5027520;28;20041;-65
2022/01/05 00:59:03;;;;;;;11.03;1.57;;;3.40;99.90;;;;;;5027758;28;20049;-65
2022/01/05 01:01:29;;;;;;;7.83;1.60;;;3.40;99.90;;;;;;5027877;28;20041;-65
2022/01/05 01:03:55;;;;;;;8.67;1.70;;;3.40;99.90;;;;;;5027024;28;20083;-65
2022/01/05 01:06:20;;;;;;;15.87;1.83;;;3.40;99.90;;;;;;5019701;28;20068;-65
2022/01/05 01:08:46;;;;;;;8.90;1.93;;;3.40;99.90;;;;;;5007407;28;20042;-66
2022/01/05 01:11:11;;;;;;;8.80;1.57;;;3.40;99.90;;;;;;5012835;28;20046;-66
2022/01/05 01:13:37;;;;;;;7.87;1.83;;;3.40;99.90;;;;;;5026930;28;20041;-65
2022/01/05 01:16:03;;;;;;;8.53;1.30;;;3.30;99.90;;;;;;5009553;28;20718;-65
2022/01/05 01:18:28;;;;;;;8.90;1.60;;;3.30;99.90;;;;;;5007338;28;20046;-65
2022/01/05 01:20:54;;;;;;;17.23;1.93;;;3.30;99.90;;;;;;5011121;28;20406;-65
2022/01/05 01:23:22;;;;;;;16.40;1.43;;;3.20;99.90;;;;;;5021011;28;20058;-65
2022/01/05 01:25:49;;;;;;;10.52;3.00;;;3.20;99.90;;;;;;5007898;28;20092;-66
2022/01/05 01:28:15;;;;;;;9.88;1.65;;;3.20;99.90;;;;;;5026663;22;20078;-86
2022/01/05 01:30:50;;;;;;;9.10;1.60;;;3.20;99.90;;;;;;4984426;28;20041;-86
2022/01/05 01:33:18;;;;;;;9.03;2.27;;;3.20;99.90;;;;;;4983450;28;20116;-85
2022/01/05 01:35:46;;;;;;;9.75;2.35;;;3.20;99.90;;;;;;4983719;28;20103;-85
2022/01/05 01:38:19;;;;;;;7.50;1.67;;;3.20;99.90;;;;;;4986026;28;20141;-87
2022/01/05 01:40:45;;;;;;;13.23;1.50;;;3.30;99.90;;;;;;4984426;28;20048;-87
2022/01/05 01:43:10;;;;;;;9.47;1.40;;;3.20;99.90;;;;;;4984660;28;20406;-86
2022/01/05 01:45:36;;;;;;;13.70;3.03;;;3.30;99.90;;;;;;4984230;28;20057;-86
2022/01/05 01:48:02;;;;;;;16.00;1.97;;;3.30;99.90;;;;;;4985979;28;20072;-85
2022/01/05 01:50:31;;;;;;;8.85;1.52;;;3.30;99.90;;;;;;4986583;28;20046;-85
2022/01/05 01:53:02;;;;;;;10.30;1.77;;;3.30;99.90;;;;;;5001436;28;20042;-85
2022/01/05 01:55:35;;;;;;;13.43;2.33;;;3.40;99.90;;;;;;4985164;28;20502;-86
2022/01/05 01:58:07;;;;;;;11.63;1.83;;;3.40;99.90;;;;;;4987691;28;20185;-87
2022/01/05 02:00:51;;;;;;;16.83;2.88;;;3.40;99.90;;;;;;5003740;28;20050;-85
2022/01/05 02:03:22;;;;;;;12.83;2.53;;;3.50;99.90;;;;;;4984167;28;20142;-86
2022/01/05 02:05:48;;;;;;;19.80;1.88;;;3.50;99.90;;;;;;4999239;28;20088;-85
2022/01/05 02:08:14;;;;;;;7.97;2.00;;;3.60;99.90;;;;;;4983476;28;20050;-86
2022/01/05 02:10:43;;;;;;;13.45;1.80;;;3.60;99.90;;;;;;4998686;28;20038;-85
2022/01/05 02:13:11;;;;;;;6.40;2.03;;;3.60;99.90;;;;;;4984426;28;20038;-85
2022/01/05 02:15:39;;;;;;;11.25;1.88;;;3.50;99.90;;;;;;5001440;28;20193;-84
2022/01/05 02:20:33;;;;;;;14.47;2.07;;;3.70;99.90;;;;;;4999569;28;20061;-87
2022/01/05 02:23:01;;;;;;;9.75;1.98;;;3.60;99.90;;;;;;4983526;28;20124;-86
2022/01/05 02:25:30;;;;;;;18.60;2.38;;;3.60;99.90;;;;;;4984633;28;20077;-85
2022/01/05 02:28:01;;;;;;;7.53;1.23;;;3.70;99.90;;;;;;4999304;28;20048;-85
2022/01/05 02:30:31;;;;;;;6.88;1.38;;;3.70;99.90;;;;;;4984199;28;20405;-86
2022/01/05 02:32:57;;;;;;;;;;;3.70;99.90;;;;;;4987758;28;20064;-85
2022/01/05 02:35:24;;;;;;;14.05;1.92;;;3.70;99.90;;;;;;4986819;28;20277;-85
2022/01/05 02:37:52;;;;;;;13.55;2.20;;;3.70;99.90;;;;;;4999525;28;20037;-85
2022/01/05 02:40:24;;;;;;;18.35;2.85;;;3.80;99.90;;;;;;4982364;28;20042;-87
2022/01/05 02:42:59;;;;;;;13.93;2.10;;;3.70;99.90;;;;;;4982090;28;20045;-86
2022/01/05 02:45:24;;;;;;;8.57;2.25;;;3.80;99.90;;;;;;4980986;28;20112;-85
2022/01/05 02:47:53;;;;;;;10.03;1.80;;;3.70;99.90;;;;;;5000486;28;20499;-85
2022/01/05 02:50:19;;;;;;;14.75;2.17;;;3.80;99.90;;;;;;4996210;28;20044;-85
2022/01/05 02:52:45;;;;;;;7.87;1.97;;;3.90;99.90;;;;;;4983878;28;20117;-85
2022/01/05 02:55:12;;;;;;;15.93;2.03;;;3.90;99.90;;;;;;4989362;28;20038;-87
2022/01/05 02:57:38;;;;;;;9.13;1.58;;;4.00;99.90;;;;;;4988541;28;20041;-85
2022/01/05 03:00:09;;;;;;;7.75;2.33;;;4.00;99.90;;;;;;4985305;28;20052;-85
2022/01/05 03:02:37;;;;;;;10.70;2.00;;;4.00;99.90;;;;;;4986401;28;20044;-85
2022/01/05 03:05:04;;;;;;;15.23;2.75;;;4.00;99.90;;;;;;5001329;28;20038;-86
2022/01/05 03:07:31;;;;;;;12.32;1.80;;;4.10;99.90;;;;;;4988991;23;20133;-64
2022/01/05 03:09:56;;;;;;;7.68;2.17;;;4.10;99.90;;;;;;4996616;28;20161;-65
2022/01/05 03:12:22;;;;;;;13.27;1.73;;;4.10;99.90;;;;;;4993992;28;20128;-65
2022/01/05 03:14:48;;;;;;;11.80;1.70;;;4.10;99.90;;;;;;4993994;28;20128;-64
2022/01/05 03:17:13;;;;;;;13.30;2.83;;;4.10;99.90;;;;;;5000240;28;20065;-65
2022/01/05 03:19:39;;;;;;;11.67;1.40;;;4.10;99.90;;;;;;4988275;28;20313;-65
2022/01/05 03:22:04;;;;;;;12.40;2.00;;;4.10;99.90;;;;;;4994266;28;20428;-65
2022/01/05 03:24:30;;;;;;;7.43;1.90;;;4.10;99.90;;;;;;4994149;28;21153;-64
2022/01/05 03:26:56;;;;;;;17.10;2.30;;;4.20;99.90;;;;;;4996714;28;20041;-64
2022/01/05 03:29:22;;;;;;;8.40;1.63;;;4.20;99.90;;;;;;4994942;28;20394;-64
2022/01/05 03:31:48;;;;;;;15.52;1.40;;;4.20;99.90;;;;;;4998087;28;20053;-64
2022/01/05 03:34:18;;;;;;;16.30;2.60;;;4.30;99.90;;;;;;4993536;28;20033;-64
2022/01/05 03:36:43;;;;;;;8.68;1.50;;;4.40;99.90;;;;;;4993665;28;20053;-64
2022/01/05 03:39:09;;;;;;;7.40;1.70;;;4.50;99.90;;;;;;4993047;28;20041;-64
2022/01/05 03:41:35;;;;;;;8.93;1.33;;;4.50;99.90;;;;;;4995766;28;20525;-64
2022/01/05 03:44:01;;;;;;;8.23;1.47;;;4.50;99.90;;;;;;4995543;28;20584;-65
2022/01/05 03:46:27;;;;;;;4.07;1.25;;;4.40;99.90;;;;;;5001848;28;20073;-64
2022/01/05 03:48:53;;;;;;;5.50;0.90;;;4.40;99.90;;;;;;4995812;28;20033;-64
2022/01/05 03:51:19;;;;;;;6.03;1.00;;;4.40;99.90;;;;;;4996533;28;20092;-64
2022/01/05 03:53:44;;;;;;;9.57;1.70;;;4.30;99.90;;;;;;4995118;28;20376;-64
2022/01/05 03:56:10;;;;;;;3.90;1.07;;;4.30;99.90;;;;;;4997670;28;20656;-64
2022/01/05 03:58:35;;;;;;;10.03;1.20;;;4.20;99.90;;;;;;4996900;28;20038;-65
2022/01/05 04:01:01;;;;;;;6.17;1.13;;;4.10;99.90;;;;;;4995062;28;20289;-65
2022/01/05 04:03:26;;;;;;;12.53;1.60;;;4.20;99.90;;;;;;4993773;28;20035;-64
2022/01/05 04:05:52;;;;;;;7.00;1.00;;;4.20;99.90;;;;;;4993767;28;20121;-65
2022/01/05 04:08:18;;;;;;;8.73;1.23;;;4.20;99.90;;;;;;4997868;28;20037;-65
2022/01/05 04:10:43;;;;;;;17.97;1.50;;;4.10;99.90;;;;;;4993003;28;20124;-64
2022/01/05 04:13:09;;;;;;;7.03;1.83;;;4.10;99.90;;;;;;4992931;28;20402;-65
2022/01/05 04:15:34;;;;;;;8.30;1.03;;;4.10;99.90;;;;;;4998212;28;20037;-65
2022/01/05 04:18:00;;;;;;;6.63;1.00;;;4.10;99.90;;;;;;5003120;28;20124;-65
2022/01/05 04:20:26;;;;;;;6.27;0.87;;;4.10;99.90;;;;;;4995342;28;20420;-65
2022/01/05 04:22:51;;;;;;;6.37;1.67;;;4.00;99.90;;;;;;4991360;28;20034;-64
2022/01/05 04:25:17;;;;;;;10.03;1.43;;;4.00;99.90;;;;;;4990861;28;20039;-64
2022/01/05 04:27:44;;;;;;;10.97;2.50;;;4.00;99.90;;;;;;4993815;28;20041;-64
2022/01/05 04:30:11;;;;;;;7.45;1.13;;;4.00;99.90;;;;;;4995619;28;20502;-65
2022/01/05 04:32:37;;;;;;;4.68;1.60;;;4.00;99.90;;;;;;4992836;28;20050;-65
2022/01/05 04:35:04;;;;;;;10.27;1.50;;;4.00;99.90;;;;;;4995371;28;20044;-65
2022/01/05 04:37:31;;;;;;;12.27;1.52;;;4.00;99.90;;;;;;4996327;28;20164;-65
2022/01/05 04:39:58;;;;;;;11.30;1.70;;;4.00;99.90;;;;;;4992935;28;20123;-67
2022/01/05 04:42:25;;;;;;;9.63;1.63;;;4.00;99.90;;;;;;4990621;28;20038;-67
2022/01/05 04:44:50;;;;;;;;;;;4.00;99.90;;;;;;4992038;28;20038;-67
2022/01/05 04:47:16;;;;;;;8.38;1.55;;;4.00;99.90;;;;;;4991443;28;20294;-67
2022/01/05 04:49:42;;;;;;;13.80;2.23;;;4.00;99.90;;;;;;4995375;28;20060;-67
2022/01/05 04:52:08;;;;;;;9.80;1.77;;;4.00;99.90;;;;;;4989954;28;20204;-67
2022/01/05 04:54:33;;;;;;;10.10;1.50;;;4.10;99.90;;;;;;4992517;28;20033;-67
2022/01/05 04:56:59;;;;;;;11.07;1.97;;;4.00;99.90;;;;;;4987575;28;20041;-67
2022/01/05 04:59:25;;;;;;;9.33;1.60;;;4.10;99.90;;;;;;4992761;28;20037;-67
2022/01/05 05:01:51;;;;;;;14.38;1.60;;;4.10;99.90;;;;;;4993056;28;20034;-67
2022/01/05 05:04:16;;;;;;;6.30;1.63;;;4.10;99.90;;;;;;4990249;28;20046;-67
2022/01/05 05:06:42;;;;;;;10.80;2.07;;;4.20;99.90;;;;;;4996333;28;20128;-67
2022/01/05 05:09:08;;;;;;;11.37;1.47;;;4.20;99.90;;;;;;4993565;28;20080;-67
2022/01/05 05:11:34;;;;;;;17.43;2.10;;;4.30;99.90;;;;;;4991430;28;20058;-67
2022/01/05 05:13:59;;;;;;;12.23;1.83;;;4.30;99.90;;;;;;4989654;28;20346;-67
2022/01/05 05:16:25;;;;;;;9.50;1.80;;;4.30;99.90;;;;;;4990501;28;20476;-67
2022/01/05 05:18:51;;;;;;;10.27;2.17;;;4.30;99.90;;;;;;4993496;28;20537;-67
2022/01/05 05:21:16;;;;;;;10.87;1.87;;;4.30;99.90;;;;;;4983941;28;20080;-67
2022/01/05 05:23:45;;;;;;;12.25;1.95;;;4.40;99.90;;;;;;4991213;28;20049;-67
2022/01/05 05:26:11;;;;;;;17.10;2.43;;;4.40;99.90;;;;;;5000480;28;20504;-67
2022/01/05 05:28:36;;;;;;;15.77;1.50;;;4.40;99.90;;;;;;4997789;28;20436;-67
2022/01/05 05:31:02;;;;;;;13.73;2.97;;;4.40;99.90;;;;;;5003669;28;20064;-67
2022/01/05 05:33:27;;;;;;;10.17;2.20;;;4.50;99.90;;;;;;5012604;28;20057;-67
2022/01/05 05:35:53;;;;;;;19.77;3.80;;;4.40;99.90;;;;;;5002706;28;20034;-67
2022/01/05 05:38:19;;;;;;;25.43;2.83;;;4.50;99.90;;;;;;4998828;28;20227;-67
2022/01/05 05:40:45;;;;;;;8.80;2.45;;;4.50;99.90;;;;;;5000957;28;20046;-67
2022/01/05 05:43:11;;;;;;;16.15;2.78;;;4.50;99.90;;;;;;5001569;28;20046;-67
2022/01/05 05:45:38;;;;;;;11.82;2.05;;;4.50;99.90;;;;;;4999027;28;20071;-67
2022/01/05 05:48:04;;;;;;;15.32;2.42;;;4.60;99.90;;;;;;4998737;28;20460;-67
2022/01/05 05:50:30;;;;;;;13.82;1.95;;;4.60;99.90;;;;;;4984944;28;20506;-67
2022/01/05 05:52:56;;;;;;;13.88;1.70;;;4.60;99.90;;;;;;4981792;28;20095;-67
2022/01/05 05:55:22;;;;;;;8.53;2.43;;;4.60;99.90;;;;;;4994035;28;20499;-67
2022/01/05 05:57:47;;;;;;;12.73;2.70;;;4.60;99.90;;;;;;4985288;28;20077;-67
2022/01/05 06:00:13;;;;;;;12.63;1.47;;;4.60;99.90;;;;;;4994358;28;20034;-67
2022/01/05 06:02:39;;;;;;;10.27;1.58;;;4.60;99.90;;;;;;4989766;28;20128;-67
2022/01/05 06:05:08;;;;;;;14.93;2.00;;;4.60;99.90;;;;;;4991295;28;20124;-67
2022/01/05 06:07:34;;;;;;;14.68;2.40;;;4.60;99.90;;;;;;4987971;28;20042;-67
2022/01/05 06:10:03;;;;;;;15.00;2.50;;;4.60;99.90;;;;;;4991233;28;20893;-67
2022/01/05 06:12:28;;;;;;;10.40;3.53;;;4.60;99.90;;;;;;4991930;28;20414;-69
2022/01/05 06:14:54;;;;;;;8.73;1.93;;;4.60;99.90;;;;;;4991174;28;20038;-69
2022/01/05 06:17:20;;;;;;;9.33;1.70;;;4.70;99.90;;;;;;4993334;28;20061;-69
2022/01/05 06:19:46;;;;;;;16.85;2.60;;;4.70;99.90;;;;;;4992249;28;20045;-69
2022/01/05 06:22:12;;;;;;;9.83;1.37;;;4.70;99.90;;;;;;4990764;28;20747;-69
2022/01/05 06:24:39;;;;;;;7.75;1.88;;;4.80;99.90;;;;;;4990709;28;20052;-69
2022/01/05 06:27:08;;;;;;;12.32;1.95;;;4.80;99.90;;;;;;4987375;28;20046;-69
2022/01/05 06:29:38;;;;;;;7.55;1.92;;;4.90;99.90;;;;;;4992267;28;20056;-69
2022/01/05 06:32:05;;;;;;;8.25;1.05;;;4.80;99.90;;;;;;4994511;28;20049;-69
2022/01/05 06:34:31;;;;;;;;;;;4.80;99.90;;;;;;4992824;28;20487;-69
2022/01/05 06:36:56;;;;;;;5.90;1.15;;;4.80;99.90;;;;;;5001080;28;19933;-69
2022/01/05 06:39:22;;;;;;;5.00;1.00;;;4.70;99.90;;;;;;4993235;28;20034;-69
2022/01/05 06:41:48;;;;;;;2.93;0.63;;;4.60;99.90;;;;;;4992920;28;20137;-69
2022/01/05 06:44:13;;;;;;;2.67;0.70;;;4.50;99.90;;;;;;4992244;28;20074;-69
2022/01/05 06:46:39;;;;;;;3.23;0.83;;;4.50;99.90;;;;;;4996646;28;20046;-69
2022/01/05 06:49:04;;;;;;;4.77;0.77;;;4.50;99.90;;;;;;4991546;28;20415;-69
2022/01/05 06:51:30;;;;;;;6.73;1.37;;;4.50;99.90;;;;;;4993667;28;20358;-69
2022/01/05 06:53:56;;;;;;;5.57;0.80;;;4.50;99.90;;;;;;4994411;28;21160;-69
2022/01/05 06:56:22;;;;;;;5.57;1.52;;;4.50;99.90;;;;;;4990723;28;20041;-69
2022/01/05 06:58:48;;;;;;;10.97;1.10;;;4.50;99.90;;;;;;4994336;28;20355;-69
2022/01/05 07:01:13;;;;;;;8.00;1.40;;;4.50;99.90;;;;;;4995364;28;20057;-69
2022/01/05 07:03:39;;;;;;;15.43;1.83;;;4.50;99.90;;;;;;4994594;28;20034;-69
2022/01/05 07:06:04;;;;;;;11.47;1.83;;;4.50;99.90;;;;;;4995992;28;20515;-69
2022/01/05 07:08:30;;;;;;;18.13;1.80;;;4.60;99.90;;;;;;4974896;28;20562;-69
2022/01/05 07:10:56;;;;;;;6.80;1.90;;;4.60;99.90;;;;;;4993650;28;20151;-69
2022/01/05 07:13:22;;;;;;;12.77;3.23;;;4.70;99.90;;;;;;4994599;28;20041;-69
2022/01/05 07:15:48;;;;;;;7.55;1.60;;;4.80;99.90;;;;;;4992000;28;20498;-69
2022/01/05 07:18:14;;;;;;;9.18;2.17;;;4.80;99.90;;;;;;4995653;28;20073;-70
2022/01/05 07:20:40;;;;;;;15.90;3.17;;;4.90;99.90;;;;;;4990170;28;20594;-70
2022/01/05 07:23:10;;;;;;;8.57;2.20;;;5.00;99.90;;;;;;4994418;28;20041;-70
2022/01/05 07:25:35;;;;;;;17.52;1.85;;;5.00;99.90;;;;;;4993342;28;20453;-69
2022/01/05 07:28:01;;;;;;;12.33;1.40;;;5.10;99.90;;;;;;5061890;22;20053;-68
2022/01/05 07:30:27;;;;;;;11.23;1.43;;;5.20;99.90;;;;;;5015875;28;20089;-70
2022/01/05 07:32:52;;;;;;;7.97;1.63;;;5.20;99.90;;;;;;5018769;28;20509;-75
2022/01/05 07:35:18;;;;;;;6.57;1.37;;;5.30;99.90;;;;;;5017735;28;20464;-68
2022/01/05 07:37:44;;;;;;;11.47;1.90;;;5.30;99.90;;;;;;5017176;28;20044;-65
2022/01/05 07:40:10;;;;;;;12.53;1.77;;;5.30;99.90;;;;;;4991510;28;20050;-66
2022/01/05 07:42:36;;;;;;;13.18;2.22;;;5.30;99.90;;;;;;5009427;28;20095;-67
2022/01/05 07:45:04;;;;;;;11.80;1.33;;;5.30;99.90;;;;;;5008622;28;20199;-64
2022/01/05 07:47:30;;;;;;;14.45;2.00;;;5.40;99.90;;;;;;5012679;28;20115;-67
2022/01/05 07:49:55;;;;;;;5.57;1.38;;;5.40;99.90;;;;;;4992718;28;20452;-69
2022/01/05 07:52:21;;;;;;;8.03;1.20;;;5.40;99.90;;;;;;5009042;28;22928;-74
2022/01/05 07:54:52;;;;;;;6.33;0.83;;;5.40;99.90;;;;;;5002955;28;20080;-66
2022/01/05 07:57:17;;;;;;;11.07;1.15;;;5.30;99.90;;;;;;5006843;28;20128;-67
2022/01/05 07:59:43;;;;;;;6.57;1.00;;;5.30;99.90;;;;;;5009083;28;20033;-67
2022/01/05 08:02:09;;;;;;;7.70;1.10;;;5.20;99.90;;;;;;5011117;28;20104;-67
2022/01/05 08:04:34;;;;;;;11.80;0.93;;;5.30;99.90;;;;;;5008685;28;20049;-66
2022/01/05 08:07:00;;;;;;;7.03;0.97;;;5.30;99.90;;;;;;5018131;28;20057;-66
2022/01/05 08:09:28;;;;;;;7.93;1.23;;;5.40;99.90;;;;;;5007025;28;20046;-66
2022/01/05 08:11:53;;;;;;;16.27;2.05;;;5.40;99.90;;;;;;5006800;28;20133;-67
2022/01/05 08:14:19;;;;;;;11.67;1.77;;;5.60;99.90;;;;;;4995520;28;20225;-68
2022/01/05 08:16:44;;;;;;;10.60;1.70;;;5.60;99.90;;;;;;4995320;28;20142;-66
2022/01/05 08:19:12;;;;;;;10.43;4.17;;;5.70;99.90;;;;;;5014612;28;20068;-65
2022/01/05 08:21:38;;;;;;;8.30;1.23;;;5.70;99.90;;;;;;5002277;28;20479;-67
2022/01/05 08:24:04;;;;;;;9.53;2.03;;;5.70;99.90;;;;;;5011676;28;20037;-65
2022/01/05 08:26:30;;;;;;;8.63;1.20;;;5.70;99.90;;;;;;5009272;28;20487;-66
2022/01/05 08:28:55;;;;;;;4.70;0.80;;;5.70;99.90;;;;;;5010419;28;20053;-66
2022/01/05 08:31:21;;;;;;;6.37;1.10;;;5.70;99.90;;;;;;5012618;28;20053;-66
2022/01/05 08:33:47;;;;;;;6.23;0.87;;;5.70;99.90;;;;;;5010560;28;20044;-67
2022/01/05 08:36:12;;;;;;;8.67;1.30;;;5.70;99.90;;;;;;5015206;28;20030;-66
2022/01/05 08:38:38;;;;;;;9.80;0.93;;;5.60;99.90;;;;;;5007684;28;20033;-66
2022/01/05 08:41:04;;;;;;;7.57;0.80;;;5.60;99.90;;;;;;5013524;28;20065;-67
2022/01/05 08:43:32;;;;;;;9.90;2.67;;;5.60;99.90;;;;;;5012675;28;20052;-67
2022/01/05 08:45:57;;;;;;;9.27;1.73;;;5.60;99.90;;;;;;5009723;28;20037;-67
2022/01/05 08:48:23;;;;;;;12.93;1.63;;;5.70;99.90;;;;;;5012902;28;20344;-67
2022/01/05 08:50:51;;;;;;;10.93;2.37;;;5.70;99.90;;;;;;5001074;28;20145;-68
2022/01/05 08:53:16;;;;;;;11.45;2.17;;;5.70;99.90;;;;;;5002322;28;20060;-67
2022/01/05 08:55:45;;;;;;;15.07;2.13;;;5.80;99.90;;;;;;4999154;28;20041;-67
2022/01/05 08:58:12;;;;;;;9.30;1.27;;;5.80;99.90;;;;;;4987539;28;20128;-67
2022/01/05 09:00:38;;;;;;;13.65;2.20;;;5.80;99.90;;;;;;4998037;28;20502;-67
2022/01/05 09:03:05;;;;;;;15.03;2.57;;;5.90;99.90;;;;;;5002183;28;20136;-66
2022/01/05 09:05:31;;;;;;;13.93;2.70;;;5.90;99.90;;;;;;5008532;28;20504;-68
2022/01/05 09:07:57;;;;;;;15.73;1.80;;;5.90;99.90;;;;;;5008250;28;20052;-70
2022/01/05 09:10:23;;;;;;;16.25;2.00;;;5.90;99.90;;;;;;5002573;28;20324;-67
2022/01/05 09:12:49;;;;;;;12.68;2.90;;;6.00;99.90;;;;;;5011830;28;20073;-67
2022/01/05 09:15:15;;;;;;;13.30;2.23;;;6.00;99.90;;;;;;5009662;28;20049;-66
2022/01/05 09:17:40;;;;;;;11.70;2.05;;;6.00;99.90;;;;;;5012154;28;20179;-67
2022/01/05 09:20:07;;;;;;;21.87;2.40;;;6.00;99.90;;;;;;5013102;28;20133;-67
2022/01/05 09:22:37;;;;;;;;;;;6.00;99.90;;;;;;5010334;28;20052;-67
2022/01/05 09:25:05;;;;;;;24.58;2.72;;;6.10;99.90;;;;;;5011822;28;19921;-67
2022/01/05 09:27:31;;;;;;;19.30;2.67;;;6.10;99.90;;;;;;5008898;28;20049;-67
2022/01/05 09:29:56;;;;;;;16.90;2.90;;;6.10;99.90;;;;;;5001601;28;20238;-68
2022/01/05 09:32:22;;;;;;;19.07;2.73;;;6.20;99.90;;;;;;5002777;28;20045;-68
2022/01/05 09:34:48;;;;;;;19.03;2.43;;;6.20;99.90;;;;;;5002417;28;20049;-68
2022/01/05 09:37:23;;;;;;;17.50;2.42;;;6.20;99.90;;;;;;5011465;28;20306;-68
2022/01/05 09:42:33;;;;;;;19.30;3.08;;;6.40;99.90;;;;;;5002083;28;20045;-68
2022/01/05 09:45:11;;;;;;;19.13;2.63;;;6.40;99.90;;;;;;5002745;28;20211;-67
2022/01/05 09:47:58;;;;;;;17.35;2.90;;;6.40;99.90;;;;;;4989787;28;20571;-67
2022/01/05 09:50:25;;;;;;;12.02;3.70;;;6.50;99.90;;;;;;5007424;28;20136;-68
2022/01/05 09:52:50;;;;;;;17.58;2.95;;;6.60;99.90;;;;;;5004375;28;20050;-68
2022/01/05 09:55:16;;;;;;;13.70;2.53;;;6.60;99.90;;;;;;5003698;28;20659;-68
2022/01/05 09:57:45;;;;;;;21.38;2.90;;;6.60;99.90;;;;;;5007904;28;20050;-67
2022/01/05 10:00:13;;;;;;;16.48;2.13;;;6.50;99.90;;;;;;5010010;28;20574;-67
2022/01/05 10:02:40;;;;;;;20.95;3.28;;;6.60;99.90;;;;;;5007659;28;20050;-67
2022/01/05 10:05:11;;;;;;;13.55;2.28;;;6.60;99.90;;;;;;5009657;28;20046;-67
2022/01/05 10:07:37;;;;;;;23.58;2.60;;;6.60;99.90;;;;;;5015310;28;20455;-67
2022/01/05 10:10:03;;;;;;;15.35;3.30;;;6.70;99.90;;;;;;5004250;28;20056;-67
2022/01/05 10:12:29;;;;;;;15.05;2.80;;;6.70;99.90;;;;;;5007298;28;20040;-67
2022/01/05 10:14:55;;;;;;;17.03;2.43;;;6.70;99.90;;;;;;5010224;28;20386;-67
2022/01/05 10:17:25;;;;;;;14.83;2.50;;;6.70;99.90;;;;;;5004997;28;20038;-67
2022/01/05 10:19:59;;;;;;;15.73;2.30;;;6.60;99.90;;;;;;5008761;28;20040;-68
2022/01/05 10:22:34;;;;;;;22.60;2.30;;;6.60;99.90;;;;;;5002921;28;20045;-67
2022/01/05 10:25:18;;;;;;;10.38;2.05;;;6.60;99.90;;;;;;5004853;28;20065;-67
2022/01/05 10:27:58;;;;;;;21.33;3.05;;;6.70;99.90;;;;;;5003919;28;20285;-67
2022/01/05 10:30:37;;;;;;;11.15;1.70;;;6.70;99.90;;;;;;5012251;28;20037;-67
2022/01/05 10:33:04;;;;;;;23.30;3.08;;;6.70;99.90;;;;;;5005926;28;20509;-67
2022/01/05 10:35:30;;;;;;;13.63;2.08;;;6.70;99.90;;;;;;5007765;28;20052;-67
2022/01/05 10:38:01;;;;;;;8.63;2.67;;;6.80;99.90;;;;;;5018070;28;20029;-67
2022/01/05 10:40:27;;;;;;;16.55;2.67;;;6.90;99.90;;;;;;5013950;28;20092;-67
2022/01/05 10:42:55;;;;;;;13.73;2.90;;;7.00;99.90;;;;;;5015217;28;20045;-67
2022/01/05 10:45:38;;;;;;;12.88;1.75;;;7.10;99.90;;;;;;5009538;28;20049;-66
2022/01/05 10:48:09;;;;;;;11.05;1.42;;;7.10;99.90;;;;;;5014014;28;20084;-67
2022/01/05 10:50:35;;;;;;;10.55;1.70;;;7.20;99.90;;;;;;5010877;28;20099;-67
2022/01/05 10:53:03;;;;;;;7.95;1.00;;;7.20;99.90;;;;;;5005891;28;20429;-67
2022/01/05 10:55:30;;;;;;;7.65;1.45;;;7.20;99.90;;;;;;5015239;28;20100;-66
2022/01/05 10:58:12;;;;;;;9.00;1.48;;;7.30;99.90;;;;;;5009567;28;20037;-67
2022/01/05 11:00:43;;;;;;;3.92;1.80;;;7.30;99.90;;;;;;5008558;28;20064;-67
2022/01/05 11:03:25;;;;;;;4.90;1.30;;;7.30;99.90;;;;;;5012977;28;20126;-67
2022/01/05 11:06:00;;;;;;;9.55;1.88;;;7.30;99.90;;;;;;5013273;28;20119;-67
2022/01/05 11:08:25;;;;;;;7.00;1.27;;;7.30;99.90;;;;;;5011205;28;20048;-66
2022/01/05 11:10:51;;;;;;;17.17;1.90;;;7.40;99.90;;;;;;5011910;28;20482;-67
2022/01/05 11:13:17;;;;;;;19.23;3.20;;;7.40;99.90;;;;;;5013167;28;20133;-67
2022/01/05 11:15:43;;;;;;;14.23;2.00;;;7.40;99.90;;;;;;5014852;28;20060;-66
2022/01/05 11:18:11;;;;;;;10.30;3.73;;;7.40;99.90;;;;;;5008465;28;20343;-66
2022/01/05 11:20:46;;;;;;;10.73;2.55;;;7.50;99.90;;;;;;5011174;28;20056;-67
2022/01/05 11:23:13;;;;;;;10.57;1.55;;;7.50;99.90;;;;;;5007023;28;20045;-67
2022/01/05 11:25:41;;;;;;;14.15;2.75;;;7.50;99.90;;;;;;5014930;28;20133;-66
2022/01/05 11:28:07;;;;;;;11.57;1.63;;;7.50;99.90;;;;;;5009119;28;20042;-66
2022/01/05 11:30:35;;;;;;;7.63;1.23;;;7.40;99.90;;;;;;5011673;28;20144;-66
2022/01/05 11:33:00;;;;;;;12.68;1.58;;;7.40;99.90;;;;;;5012237;28;20099;-67
2022/01/05 11:35:27;;;;;;;7.67;1.40;;;7.20;99.90;;;;;;5012320;28;20410;-67
2022/01/05 11:37:52;;;;;;;11.60;1.58;;;7.10;99.90;;;;;;5010186;28;20037;-66
2022/01/05 11:40:20;;;;;;;8.27;1.70;;;6.90;99.90;;;;;;5012069;28;20033;-66
2022/01/05 11:42:49;;;;;;;11.90;1.35;;;6.90;99.90;;;;;;5008939;28;20136;-66
2022/01/05 11:45:35;;;;;;;8.18;1.80;;;6.90;99.90;;;;;;5007382;28;20073;-66
2022/01/05 11:48:13;;;;;;;5.60;1.15;;;7.00;99.90;;;;;;5008139;28;20126;-66
2022/01/05 11:50:51;;;;;;;11.93;1.92;;;7.10;99.90;;;;;;5006472;28;20062;-67
2022/01/05 11:53:30;;;;;;;;;;;7.10;99.90;;;;;;5005465;28;20509;-66
2022/01/05 11:55:58;;;;;;;12.13;2.25;;;7.20;99.90;;;;;;5012114;28;20004;-66
2022/01/05 11:58:26;;;;;;;13.45;2.30;;;7.30;99.90;;;;;;5006476;28;20168;-67
2022/01/05 12:01:17;;;;;;;11.00;1.73;;;7.30;99.90;;;;;;5005710;28;20057;-75
2022/01/05 12:03:52;;;;;;;9.85;1.98;;;7.50;99.90;;;;;;5002613;28;20078;-67
2022/01/05 12:06:24;;;;;;;9.20;1.48;;;7.60;99.90;;;;;;5015488;28;20064;-67
2022/01/05 12:09:16;;;;;;;12.45;2.17;;;7.60;99.90;;;;;;5011188;28;20041;-67
2022/01/05 12:11:42;;;;;;;16.23;2.45;;;7.70;99.90;;;;;;5005766;28;20065;-68
2022/01/05 12:14:20;;;;;;;17.02;2.55;;;7.70;99.90;;;;;;5010054;28;20148;-67
2022/01/05 12:19:28;;;;;;;25.13;2.75;;;7.70;99.90;;;;;;5005705;28;20053;-67
2022/01/05 12:21:55;;;;;;;15.35;2.60;;;7.70;99.90;;;;;;5008578;28;20374;-67
2022/01/05 12:24:22;;;;;;;11.05;2.50;;;7.70;99.90;;;;;;5006400;28;20049;-67
2022/01/05 12:27:16;;;;;;;15.30;1.95;;;7.60;99.90;;;;;;5009667;28;20128;-66
2022/01/05 12:29:43;;;;;;;13.68;2.15;;;7.50;99.90;;;;;;5007524;28;20075;-66
2022/01/05 12:32:09;;;;;;;18.65;2.70;;;7.40;99.90;;;;;;5008314;28;20045;-68
2022/01/05 12:34:53;;;;;;;9.57;2.17;;;7.30;99.90;;;;;;5007985;28;20104;-77
2022/01/05 12:37:41;;;;;;;11.35;1.85;;;7.30;99.90;;;;;;5010601;28;21572;-75
2022/01/05 12:40:30;;;;;;;14.32;2.13;;;7.20;99.90;;;;;;5015955;28;20041;-72
2022/01/05 12:43:08;;;;;;;8.82;1.90;;;7.20;99.90;;;;;;5004895;28;20037;-73
2022/01/05 12:45:56;;;;;;;8.88;1.45;;;7.20;99.90;;;;;;4998773;28;20276;-72
2022/01/05 12:48:31;;;;;;;16.23;2.25;;;7.20;99.90;;;;;;5008398;28;20100;-72
2022/01/05 12:51:31;;;;;;;15.05;1.90;;;7.30;99.90;;;;;;5018374;28;20060;-74
2022/01/05 12:54:18;;;;;;;15.25;2.80;;;7.40;99.90;;;;;;5001757;28;21986;-75
2022/01/05 12:56:45;;;;;;;20.08;1.90;;;7.40;99.90;;;;;;5009812;28;20457;-75
2022/01/05 12:59:17;;;;;;;11.55;2.63;;;7.30;99.90;;;;;;5013446;28;20096;-70
2022/01/05 13:01:44;;;;;;;16.83;2.60;;;7.30;99.90;;;;;;5008774;28;20049;-75
2022/01/05 13:04:12;;;;;;;20.75;2.50;;;7.30;99.90;;;;;;5009249;28;20525;-74